Time;durP1;ratioP1;P1;durP2;ratioP2;P2;SDS_P1;SDS_P2;PMS_P1;PMS_P2;Temp;Humidity;BMP_temperature;BMP_pressure;BME280_temperature;BME280_humidity;BME280_pressure;Samples;Min_cycle;Max_cycle;Signal;HPM_P1;HPM_P2
2024/01/10 00:01:02;;;;;;;23.55;14.30;;;;;;;15.64;41.61;103338.16;4947511;28;20051;-35
2024/01/10 00:03:29;;;;;;;20.95;13.57;;;;;;;15.64;41.76;103329.25;4948467;28;20051;-36
2024/01/10 00:05:56;;;;;;;22.52;13.93;;;;;;;15.61;41.42;103335.63;4943585;29;20051;-36
2024/01/10 00:08:23;;;;;;;20.00;12.70;;;;;;;15.59;41.50;103334.81;4945894;28;20462;-36
2024/01/10 00:10:49;;;;;;;20.58;14.18;;;;;;;15.55;41.26;103331.44;4943841;29;20075;-35
2024/01/10 00:13:17;;;;;;;21.80;13.73;;;;;;;15.49;41.28;103322.88;4943700;29;20051;-35
2024/01/10 00:15:43;;;;;;;20.95;12.75;;;;;;;15.40;41.62;103324.19;4944095;28;20138;-35
2024/01/10 00:18:10;;;;;;;20.70;12.68;;;;;;;15.29;41.23;103324.72;4949389;29;20051;-35
2024/01/10 00:20:37;;;;;;;19.10;12.05;;;;;;;15.21;41.25;103318.03;4947540;28;20416;-34
2024/01/10 00:23:03;;;;;;;19.17;12.43;;;;;;;15.16;42.15;103326.25;4947906;29;20126;-34
2024/01/10 00:25:30;;;;;;;19.42;12.52;;;;;;;15.12;41.28;103319.34;4942948;29;20328;-34
2024/01/10 00:27:57;;;;;;;20.83;12.57;;;;;;;15.08;42.08;103317.75;4945801;28;20055;-35
2024/01/10 00:30:25;;;;;;;19.63;12.20;;;;;;;15.09;42.08;103326.63;4945731;29;20043;-35
2024/01/10 00:32:52;;;;;;;18.35;11.40;;;;;;;15.13;41.90;103326.41;4949682;29;20054;-35
2024/01/10 00:35:18;;;;;;;17.25;10.80;;;;;;;15.24;41.90;103325.91;4945736;29;20138;-37
2024/01/10 00:37:45;;;;;;;17.02;11.00;;;;;;;15.37;41.74;103319.00;4947927;29;20074;-36
2024/01/10 00:40:12;;;;;;;19.08;11.50;;;;;;;15.50;41.58;103320.13;4943934;29;20047;-34
2024/01/10 00:42:39;;;;;;;18.15;10.95;;;;;;;15.60;41.37;103323.22;4947289;29;20059;-35
2024/01/10 00:45:05;;;;;;;15.52;10.60;;;;;;;15.68;40.34;103321.03;4948319;28;20083;-35
2024/01/10 00:47:32;;;;;;;15.48;9.90;;;;;;;15.76;41.17;103315.31;4949003;29;20172;-35
2024/01/10 00:49:58;;;;;;;16.23;9.55;;;;;;;15.82;41.09;103316.78;4948956;28;20316;-35
2024/01/10 00:52:25;;;;;;;15.73;10.15;;;;;;;15.86;40.03;103311.22;4946147;29;20452;-34
2024/01/10 00:54:52;;;;;;;14.27;9.32;;;;;;;15.88;40.96;103308.44;4948063;29;20047;-39
2024/01/10 00:57:18;;;;;;;16.73;9.27;;;;;;;15.85;40.00;103314.84;4945602;29;20455;-36
2024/01/10 00:59:45;;;;;;;15.98;9.82;;;;;;;15.77;40.84;103309.88;4946939;28;20409;-34
2024/01/10 01:02:11;;;;;;;13.85;9.35;;;;;;;15.71;41.19;103310.16;4946399;29;20051;-34
2024/01/10 01:04:38;;;;;;;14.73;9.43;;;;;;;15.67;40.53;103297.91;4944698;29;20547;-35
2024/01/10 01:07:05;;;;;;;14.40;9.27;;;;;;;15.67;40.93;103292.56;4948986;29;20086;-36
2024/01/10 01:09:31;;;;;;;16.10;10.10;;;;;;;15.66;40.23;103295.31;4948530;29;20058;-35
2024/01/10 01:11:58;;;;;;;13.85;9.27;;;;;;;15.64;41.18;103294.47;4946701;29;20054;-37
2024/01/10 01:14:25;;;;;;;14.65;9.07;;;;;;;15.62;40.47;103299.91;4945320;29;20039;-36
2024/01/10 01:16:51;;;;;;;15.00;9.25;;;;;;;15.59;41.39;103299.22;4952018;28;20051;-34
2024/01/10 01:19:19;;;;;;;12.27;8.10;;;;;;;15.53;40.37;103295.06;4951162;28;20062;-34
2024/01/10 01:21:46;;;;;;;12.68;8.48;;;;;;;15.48;41.19;103297.09;4950359;29;20051;-36
2024/01/10 01:24:12;;;;;;;12.52;8.00;;;;;;;15.41;41.21;103295.66;4945222;29;20134;-35
2024/01/10 01:26:39;;;;;;;14.15;8.75;;;;;;;15.31;40.46;103293.44;4949860;28;20087;-35
2024/01/10 01:29:06;;;;;;;12.10;8.15;;;;;;;15.23;40.79;103298.28;4949326;28;20051;-36
2024/01/10 01:31:32;;;;;;;13.55;8.35;;;;;;;15.14;41.73;103293.41;4952700;28;20340;-37
2024/01/10 01:33:59;;;;;;;11.10;7.72;;;;;;;15.09;41.60;103289.22;4948782;29;20147;-36
2024/01/10 01:36:26;;;;;;;12.10;7.72;;;;;;;15.11;41.72;103293.53;4946759;28;20491;-34
2024/01/10 01:38:53;;;;;;;9.30;6.65;;;;;;;15.19;41.27;103287.81;4951114;29;20043;-35
2024/01/10 01:41:19;;;;;;;12.68;7.55;;;;;;;15.31;41.57;103272.06;4951107;29;20044;-36
2024/01/10 01:43:47;;;;;;;12.30;7.63;;;;;;;15.46;40.41;103270.44;4951139;28;20088;-36
2024/01/10 01:46:14;;;;;;;10.70;7.13;;;;;;;15.56;40.27;103278.88;4947747;28;20083;-35
2024/01/10 01:48:41;;;;;;;11.02;7.47;;;;;;;15.64;40.34;103271.31;4951554;29;20145;-35
2024/01/10 01:51:10;;;;;;;13.40;8.10;;;;;;;15.74;40.39;103277.94;4950879;28;20047;-35
2024/01/10 01:53:38;;;;;;;13.05;7.50;;;;;;;15.80;40.58;103271.44;4949836;28;20067;-36
2024/01/10 01:56:09;;;;;;;10.90;6.88;;;;;;;15.83;40.69;103263.22;4948871;29;20457;-36
2024/01/10 01:58:37;;;;;;;10.48;6.45;;;;;;;15.89;40.09;103275.44;4950120;28;20110;-36
2024/01/10 02:01:05;;;;;;;12.88;7.28;;;;;;;15.87;39.88;103266.59;4948270;29;20142;-36
2024/01/10 02:03:32;;;;;;;10.68;6.55;;;;;;;15.82;40.98;103258.81;4947851;29;20075;-39
2024/01/10 02:06:03;;;;;;;10.93;6.60;;;;;;;15.75;41.18;103258.28;4949162;28;20062;-36
2024/01/10 02:08:34;;;;;;;8.13;5.40;;;;;;;15.68;40.15;103264.91;4949468;28;20063;-36
2024/01/10 02:11:02;;;;;;;9.20;6.35;;;;;;;15.62;40.50;103261.63;4946214;28;20133;-35
2024/01/10 02:13:32;;;;;;;8.75;5.68;;;;;;;15.58;41.50;103266.28;4945954;29;20065;-35
2024/01/10 02:15:59;;;;;;;9.70;6.10;;;;;;;15.53;41.37;103263.84;4946792;29;20055;-38
2024/01/10 02:18:26;;;;;;;10.23;6.40;;;;;;;15.50;40.64;103263.13;4947903;28;20046;-36
2024/01/10 02:20:52;;;;;;;9.65;6.65;;;;;;;15.48;41.26;103270.38;4949954;29;20048;-36
2024/01/10 02:23:19;;;;;;;8.43;5.78;;;;;;;15.45;40.90;103267.84;4948199;29;20073;-35
2024/01/10 02:25:46;;;;;;;9.05;6.00;;;;;;;15.45;41.25;103270.53;4947683;28;20051;-35
2024/01/10 02:28:12;;;;;;;8.93;5.80;;;;;;;15.43;40.53;103264.38;4950989;29;20347;-35
2024/01/10 02:30:39;;;;;;;9.35;6.25;;;;;;;15.39;41.63;103249.44;4948088;29;20440;-36
2024/01/10 02:33:05;;;;;;;8.07;5.15;;;;;;;15.36;40.84;103252.28;4948780;29;20051;-36
2024/01/10 02:35:33;;;;;;;8.63;5.50;;;;;;;15.33;41.03;103249.75;4946083;28;20435;-36
2024/01/10 02:38:00;;;;;;;8.80;6.10;;;;;;;15.30;40.95;103248.94;4945803;28;20092;-36
2024/01/10 02:40:26;;;;;;;8.23;5.35;;;;;;;15.30;41.04;103254.31;4945022;29;20059;-35
2024/01/10 02:42:53;;;;;;;8.00;5.50;;;;;;;15.30;41.55;103243.59;4946431;29;20432;-34
2024/01/10 02:45:20;;;;;;;8.82;5.65;;;;;;;15.26;41.48;103242.03;4946821;29;20725;-34
2024/01/10 02:47:46;;;;;;;7.30;5.00;;;;;;;15.27;41.58;103235.75;4946645;28;20418;-35
2024/01/10 02:50:13;;;;;;;6.85;4.72;;;;;;;15.29;41.24;103239.22;4947537;28;20062;-34
2024/01/10 02:52:40;;;;;;;6.95;4.65;;;;;;;15.31;41.21;103236.47;4948717;29;20133;-34
2024/01/10 02:55:07;;;;;;;7.57;4.88;;;;;;;15.25;41.00;103245.66;4948200;29;20355;-34
2024/01/10 02:57:33;;;;;;;8.38;5.20;;;;;;;15.20;41.32;103245.03;4948514;29;20355;-34
2024/01/10 03:00:00;;;;;;;8.90;5.72;;;;;;;15.24;41.53;103245.75;4948977;28;20078;-34
2024/01/10 03:02:27;;;;;;;6.53;4.55;;;;;;;15.34;40.70;103238.97;4948395;28;20131;-35
2024/01/10 03:04:54;;;;;;;7.65;4.75;;;;;;;15.46;41.02;103250.84;4950612;28;20102;-34
2024/01/10 03:07:20;;;;;;;8.00;4.65;;;;;;;15.55;40.52;103240.53;4947570;28;20237;-34
2024/01/10 03:09:47;;;;;;;6.72;4.28;;;;;;;15.64;40.71;103235.66;4947996;29;20048;-35
2024/01/10 03:12:14;;;;;;;7.53;4.65;;;;;;;15.72;40.97;103226.38;4950799;29;20565;-36
2024/01/10 03:14:40;;;;;;;6.10;4.45;;;;;;;15.79;40.55;103229.56;4948460;29;20404;-34
2024/01/10 03:17:07;;;;;;;7.38;4.90;;;;;;;15.83;40.66;103223.09;4945983;29;20055;-34
2024/01/10 03:19:34;;;;;;;6.25;4.15;;;;;;;15.83;40.67;103220.44;4950016;28;20131;-35
2024/01/10 03:22:00;;;;;;;5.85;4.13;;;;;;;15.77;39.67;103223.44;4951177;29;20391;-34
2024/01/10 03:24:27;;;;;;;6.72;4.32;;;;;;;15.70;39.84;103222.91;4949146;28;20043;-34
2024/01/10 03:26:54;;;;;;;6.38;4.28;;;;;;;15.67;40.42;103223.03;4949141;29;20126;-36
2024/01/10 03:29:20;;;;;;;6.53;4.40;;;;;;;15.61;40.23;103222.50;4946050;29;20407;-35
2024/01/10 03:31:47;;;;;;;6.22;4.15;;;;;;;15.58;40.11;103223.50;4949259;28;20051;-34
2024/01/10 03:34:14;;;;;;;5.57;3.95;;;;;;;15.57;40.33;103221.78;4948858;29;20059;-36
2024/01/10 03:36:40;;;;;;;4.80;3.55;;;;;;;15.55;41.09;103218.31;4952567;28;20055;-35
2024/01/10 03:39:07;;;;;;;5.78;3.67;;;;;;;15.54;41.08;103216.59;4951126;28;20677;-35
2024/01/10 03:41:33;;;;;;;5.82;3.75;;;;;;;15.51;40.50;103222.94;4950515;29;20043;-35
2024/01/10 03:44:00;;;;;;;8.27;4.43;;;;;;;15.47;40.77;103223.19;4950208;29;20059;-36
2024/01/10 03:46:27;;;;;;;7.47;3.67;;;;;;;15.42;40.11;103215.41;4947057;29;20055;-35
2024/01/10 03:48:53;;;;;;;6.28;4.03;;;;;;;15.33;40.94;103212.34;4950067;29;20428;-34
2024/01/10 03:51:21;;;;;;;5.53;3.90;;;;;;;15.25;40.99;103215.41;4950551;28;20043;-35
2024/01/10 03:53:49;;;;;;;4.93;3.70;;;;;;;15.19;40.37;103221.91;4949873;29;20058;-34
2024/01/10 03:56:16;;;;;;;4.78;3.47;;;;;;;15.15;40.44;103220.31;4949142;28;20051;-35
2024/01/10 03:58:43;;;;;;;6.13;3.75;;;;;;;15.16;40.26;103216.75;4945871;28;20161;-35
2024/01/10 04:01:10;;;;;;;5.43;3.80;;;;;;;15.22;41.28;103218.22;4946746;28;20047;-34
2024/01/10 04:03:36;;;;;;;5.45;3.88;;;;;;;15.33;40.22;103213.22;4949509;28;20486;-34
2024/01/10 04:06:03;;;;;;;4.57;3.17;;;;;;;15.44;40.53;103210.84;4948744;28;20121;-35
2024/01/10 04:08:30;;;;;;;5.97;4.03;;;;;;;15.52;39.69;103208.66;4945952;28;20435;-35
2024/01/10 04:10:57;;;;;;;5.47;3.70;;;;;;;15.62;39.67;103208.16;4946377;29;20054;-37
2024/01/10 04:13:24;;;;;;;5.60;3.60;;;;;;;15.67;40.64;103201.66;4947878;28;20412;-36
2024/01/10 04:15:52;;;;;;;5.28;3.47;;;;;;;15.74;40.59;103203.06;4948027;28;20059;-35
2024/01/10 04:18:19;;;;;;;5.50;3.38;;;;;;;15.78;39.80;103199.28;4944764;28;20450;-35
2024/01/10 04:20:47;;;;;;;4.05;2.97;;;;;;;15.82;39.64;103193.78;4947208;29;20072;-35
2024/01/10 04:23:14;;;;;;;5.05;3.25;;;;;;;15.84;39.41;103197.22;4946511;28;20063;-36
2024/01/10 04:25:41;;;;;;;4.35;3.17;;;;;;;15.79;39.56;103200.16;4944589;29;20098;-35
2024/01/10 04:28:07;;;;;;;5.15;3.22;;;;;;;15.71;40.47;103194.34;4949379;29;20051;-36
2024/01/10 04:30:34;;;;;;;4.53;3.45;;;;;;;15.64;40.46;103190.22;4946325;29;20082;-35
2024/01/10 04:33:00;;;;;;;4.38;2.90;;;;;;;15.60;40.49;103188.66;4943270;28;20052;-34
2024/01/10 04:35:27;;;;;;;4.55;3.22;;;;;;;15.57;40.81;103191.53;4945278;29;20047;-35
2024/01/10 04:37:54;;;;;;;4.93;3.08;;;;;;;15.57;40.52;103194.19;4941823;29;20458;-37
2024/01/10 04:40:20;;;;;;;5.20;3.30;;;;;;;15.55;40.12;103188.91;4947167;28;20059;-35
2024/01/10 04:42:47;;;;;;;4.57;3.15;;;;;;;15.52;39.96;103187.28;4942503;29;20098;-36
2024/01/10 04:45:14;;;;;;;4.32;3.08;;;;;;;15.51;40.68;103190.00;4947260;29;20487;-35
2024/01/10 04:47:40;;;;;;;3.55;2.80;;;;;;;15.48;40.83;103182.16;4945965;29;20412;-36
2024/01/10 04:50:08;;;;;;;3.85;2.78;;;;;;;15.44;40.65;103186.81;4944478;28;20066;-34
2024/01/10 04:52:39;;;;;;;4.85;3.10;;;;;;;15.38;40.00;103195.13;4943599;29;20082;-34
2024/01/10 04:55:07;;;;;;;4.35;2.70;;;;;;;15.30;39.98;103181.28;4947720;29;20549;-35
2024/01/10 04:57:34;;;;;;;4.25;3.15;;;;;;;15.21;40.96;103189.78;4944616;28;20351;-36
2024/01/10 05:00:02;;;;;;;4.18;2.88;;;;;;;15.15;40.41;103188.28;4947703;29;20086;-35
2024/01/10 05:02:29;;;;;;;4.32;2.97;;;;;;;15.15;40.10;103180.25;4941343;29;20118;-34
2024/01/10 05:04:56;;;;;;;3.67;2.60;;;;;;;15.23;40.24;103185.22;4945293;28;20351;-34
2024/01/10 05:07:22;;;;;;;3.78;2.67;;;;;;;15.26;40.20;103172.56;4944341;29;20066;-34
2024/01/10 05:09:49;;;;;;;5.05;3.42;;;;;;;15.29;40.23;103169.75;4944150;29;20474;-35
2024/01/10 05:12:16;;;;;;;3.95;2.55;;;;;;;15.36;40.56;103172.97;4942999;29;20857;-35
2024/01/10 05:14:42;;;;;;;4.40;3.10;;;;;;;15.47;40.15;103177.75;4946366;28;20051;-34
2024/01/10 05:17:09;;;;;;;4.05;2.80;;;;;;;15.56;40.46;103166.59;4944922;29;20427;-37
2024/01/10 05:19:35;;;;;;;5.03;3.33;;;;;;;15.63;39.99;103167.13;4946250;29;20047;-35
2024/01/10 05:22:02;;;;;;;5.43;3.95;;;;;;;15.71;40.44;103168.47;4945560;29;20094;-34
2024/01/10 05:24:30;;;;;;;7.18;4.57;;;;;;;15.78;39.45;103171.69;4945555;29;20055;-36
2024/01/10 05:26:57;;;;;;;7.35;4.78;;;;;;;15.85;39.92;103161.53;4943377;29;20522;-35
2024/01/10 05:29:24;;;;;;;6.13;4.30;;;;;;;15.90;39.90;103170.16;4938040;29;20052;-36
2024/01/10 05:31:51;;;;;;;7.75;5.10;;;;;;;15.94;39.84;103166.38;4943824;28;20075;-35
2024/01/10 05:34:18;;;;;;;7.95;5.43;;;;;;;15.97;39.17;103167.09;4946113;28;20098;-35
2024/01/10 05:36:45;;;;;;;7.95;5.15;;;;;;;15.98;39.27;103174.16;4941962;29;20388;-35
2024/01/10 05:39:15;;;;;;;8.35;6.13;;;;;;;15.97;39.84;103175.09;4939940;28;20440;-36
2024/01/10 05:41:43;;;;;;;9.00;6.30;;;;;;;15.92;39.04;103181.63;4945158;29;20085;-38
2024/01/10 05:44:12;;;;;;;7.65;5.72;;;;;;;15.83;39.08;103184.81;4941057;29;20044;-36
2024/01/10 05:46:39;;;;;;;8.68;5.85;;;;;;;15.77;39.79;103180.66;4942343;29;20051;-35
2024/01/10 05:49:06;;;;;;;10.50;6.97;;;;;;;15.70;40.24;103182.78;4940816;29;20086;-34
2024/01/10 05:51:33;;;;;;;10.40;6.85;;;;;;;15.63;39.45;103176.00;4940706;29;20047;-34
2024/01/10 05:54:00;;;;;;;9.75;6.60;;;;;;;15.59;39.74;103177.09;4942459;28;20059;-35
2024/01/10 05:56:27;;;;;;;11.20;6.93;;;;;;;15.58;40.46;103177.19;4946058;29;20055;-36
2024/01/10 05:58:54;;;;;;;9.52;6.15;;;;;;;15.55;39.74;103173.72;4947681;28;20055;-32
2024/01/10 06:01:21;;;;;;;10.73;6.53;;;;;;;15.54;39.71;103168.47;4946653;28;20102;-35
2024/01/10 06:03:47;;;;;;;10.57;6.93;;;;;;;15.51;39.73;103172.16;4948622;29;20102;-34
2024/01/10 06:06:14;;;;;;;10.25;6.85;;;;;;;15.48;39.71;103166.13;4950100;29;20352;-35
2024/01/10 06:08:41;;;;;;;10.77;7.00;;;;;;;15.42;39.77;103166.44;4949126;28;20139;-34
2024/01/10 06:11:09;;;;;;;11.15;7.18;;;;;;;15.35;40.35;103157.88;4947718;29;20126;-35
2024/01/10 06:13:36;;;;;;;11.07;7.32;;;;;;;15.26;39.86;103166.38;4948600;29;20058;-35
2024/01/10 06:16:18;;;;;;;10.38;6.72;;;;;;;15.19;40.93;103165.81;4949832;28;20051;-34
2024/01/10 06:18:45;;;;;;;9.50;6.95;;;;;;;15.21;40.76;103155.06;4950657;28;20343;-35
2024/01/10 06:21:12;;;;;;;9.48;6.47;;;;;;;15.30;40.78;103155.44;4946794;29;20056;-36
2024/01/10 06:23:39;;;;;;;10.57;6.65;;;;;;;15.41;40.54;103152.22;4944824;29;20059;-36
2024/01/10 06:26:06;;;;;;;11.02;7.20;;;;;;;15.50;39.71;103157.06;4944356;29;20062;-35
2024/01/10 06:28:33;;;;;;;9.80;7.35;;;;;;;15.58;40.28;103155.81;4947718;29;20047;-36
2024/01/10 06:30:59;;;;;;;13.20;7.78;;;;;;;15.67;39.86;103172.25;4944197;28;20043;-36
2024/01/10 06:33:26;;;;;;;10.38;7.43;;;;;;;15.74;39.87;103171.00;4946001;29;20439;-36
2024/01/10 06:35:54;;;;;;;11.13;7.43;;;;;;;15.79;39.43;103168.06;4946510;29;20106;-36
2024/01/10 06:38:22;;;;;;;9.90;7.05;;;;;;;15.84;40.03;103165.13;4947925;28;20480;-38
2024/01/10 06:40:50;;;;;;;11.65;7.97;;;;;;;15.87;39.15;103167.66;4942848;28;20487;-37
2024/01/10 06:43:17;;;;;;;11.07;7.18;;;;;;;15.89;39.14;103163.97;4945877;29;20043;-36
2024/01/10 06:45:44;;;;;;;10.73;6.97;;;;;;;15.91;39.27;103161.19;4948066;29;20058;-36
2024/01/10 06:48:11;;;;;;;11.98;6.97;;;;;;;15.88;39.60;103166.69;4946643;28;20764;-37
2024/01/10 06:50:39;;;;;;;10.85;7.57;;;;;;;15.81;39.20;103165.31;4946538;28;20058;-35
2024/01/10 06:53:06;;;;;;;11.40;7.85;;;;;;;15.72;39.88;103162.19;4941501;28;20047;-37
2024/01/10 06:55:32;;;;;;;10.68;6.90;;;;;;;15.65;40.06;103154.59;4943727;28;20427;-35
2024/01/10 06:57:59;;;;;;;11.75;7.45;;;;;;;15.61;40.20;103164.53;4943555;28;20052;-36
2024/01/10 07:00:26;;;;;;;9.48;6.93;;;;;;;15.60;39.48;103170.84;4942209;28;20047;-38
2024/01/10 07:02:53;;;;;;;10.88;7.38;;;;;;;15.58;39.76;103167.38;4946308;29;20044;-37
2024/01/10 07:05:20;;;;;;;10.18;6.88;;;;;;;15.55;40.17;103159.50;4944644;29;20435;-36
2024/01/10 07:07:46;;;;;;;9.43;6.53;;;;;;;15.53;39.37;103164.94;4945407;29;20410;-35
2024/01/10 07:10:13;;;;;;;8.80;6.68;;;;;;;15.50;39.92;103161.56;4945787;28;20454;-39
2024/01/10 07:12:41;;;;;;;9.80;6.72;;;;;;;15.47;39.18;103159.03;4943226;28;20158;-36
2024/01/10 07:15:08;;;;;;;10.27;6.35;;;;;;;15.44;39.15;103162.75;4944209;28;20086;-35
2024/01/10 07:17:35;;;;;;;16.15;6.78;;;;;;;15.41;39.20;103164.72;4948385;28;20103;-38
2024/01/10 07:20:02;;;;;;;9.05;6.47;;;;;;;15.34;39.51;103166.84;4945241;28;20058;-38
2024/01/10 07:22:30;;;;;;;10.23;6.72;;;;;;;15.27;39.44;103163.59;4940865;29;20083;-36
2024/01/10 07:24:57;;;;;;;9.85;6.35;;;;;;;15.18;39.58;103166.75;4945799;29;20499;-35
2024/01/10 07:27:24;;;;;;;10.23;6.97;;;;;;;15.10;39.40;103166.28;4942905;28;20095;-35
2024/01/10 07:29:50;;;;;;;8.75;5.63;;;;;;;14.99;39.37;103163.28;4943934;29;20052;-34
2024/01/10 07:32:19;;;;;;;9.32;5.82;;;;;;;14.90;39.88;103172.63;4945277;29;20332;-35
2024/01/10 07:34:46;;;;;;;10.52;6.43;;;;;;;14.81;40.16;103170.41;4939985;29;20449;-35
2024/01/10 07:37:13;;;;;;;8.98;5.72;;;;;;;14.72;40.34;103182.41;4943958;29;20061;-36
2024/01/10 07:39:40;;;;;;;10.23;6.45;;;;;;;14.64;40.92;103176.59;4942601;28;20055;-35
2024/01/10 07:42:07;;;;;;;9.65;6.20;;;;;;;14.55;40.22;103177.00;4948010;28;20126;-36
2024/01/10 07:44:33;;;;;;;7.80;5.78;;;;;;;14.47;40.66;103165.81;4947224;28;20134;-35
2024/01/10 07:47:01;;;;;;;9.57;6.50;;;;;;;14.40;40.63;103183.06;4949539;29;20059;-35
2024/01/10 07:49:29;;;;;;;8.75;6.30;;;;;;;14.30;41.12;103175.47;4943429;28;20108;-36
2024/01/10 07:51:56;;;;;;;7.00;5.28;;;;;;;14.24;41.03;103180.25;4941847;28;20050;-35
2024/01/10 07:54:23;;;;;;;8.00;5.45;;;;;;;14.15;41.15;103189.53;4943724;28;20062;-34
2024/01/10 07:56:49;;;;;;;10.05;5.70;;;;;;;14.06;40.97;103185.47;4939646;29;20424;-34
2024/01/10 07:59:17;;;;;;;7.30;5.25;;;;;;;14.00;41.08;103188.44;4943386;29;20093;-35
2024/01/10 08:01:53;;;;;;;7.50;5.85;;;;;;;13.93;41.48;103200.31;4945120;28;20395;-35
2024/01/10 08:04:20;;;;;;;10.88;6.85;;;;;;;13.86;41.50;103197.97;4942732;29;20058;-35
2024/01/10 08:06:47;;;;;;;9.05;5.50;;;;;;;13.79;41.84;103200.94;4946951;29;20134;-35
2024/01/10 08:09:14;;;;;;;7.78;5.50;;;;;;;13.71;41.93;103205.75;4939529;28;20643;-35
2024/01/10 08:11:40;;;;;;;8.20;6.00;;;;;;;13.63;42.04;103204.31;4943370;28;20052;-35
2024/01/10 08:14:07;;;;;;;7.68;5.50;;;;;;;13.54;42.11;103205.59;4941439;29;20051;-35
2024/01/10 08:16:35;;;;;;;7.60;5.03;;;;;;;13.47;42.14;103204.16;4940464;29;20431;-36
2024/01/10 08:19:01;;;;;;;7.53;5.60;;;;;;;13.40;42.22;103192.88;4940491;29;20066;-35
2024/01/10 08:21:28;;;;;;;6.85;4.90;;;;;;;13.34;42.46;103191.31;4944673;28;20048;-35
2024/01/10 08:23:55;;;;;;;8.32;5.43;;;;;;;13.30;42.54;103191.53;4945464;28;20059;-36
2024/01/10 08:26:21;;;;;;;7.97;5.30;;;;;;;13.25;42.76;103197.06;4941538;29;20806;-35
2024/01/10 08:28:48;;;;;;;6.80;5.07;;;;;;;13.21;42.43;103190.09;4941013;29;20158;-35
2024/01/10 08:31:18;;;;;;;7.35;5.05;;;;;;;13.16;43.04;103191.22;4946457;28;20051;-35
2024/01/10 08:33:46;;;;;;;8.68;5.90;;;;;;;13.14;42.79;103193.06;4942878;28;20120;-36
2024/01/10 08:36:14;;;;;;;7.13;5.05;;;;;;;13.13;42.84;103188.69;4944923;28;20138;-35
2024/01/10 08:38:41;;;;;;;8.43;5.55;;;;;;;13.14;43.44;103198.41;4940965;28;20058;-35
2024/01/10 08:41:11;;;;;;;7.57;5.00;;;;;;;13.18;43.25;103189.34;4946273;29;20137;-36
2024/01/10 08:43:38;;;;;;;6.50;4.63;;;;;;;13.27;43.39;103184.56;4943060;28;20491;-34
2024/01/10 08:46:05;;;;;;;6.38;4.57;;;;;;;13.40;43.57;103189.34;4938656;29;20054;-36
2024/01/10 08:48:32;;;;;;;6.07;4.60;;;;;;;13.52;43.00;103186.16;4940141;29;20360;-35
2024/01/10 08:50:59;;;;;;;6.85;4.80;;;;;;;13.64;43.72;103179.44;4943467;28;20059;-36
2024/01/10 08:53:25;;;;;;;6.95;4.53;;;;;;;13.74;43.65;103178.06;4945213;29;20059;-36
2024/01/10 08:55:52;;;;;;;6.95;4.55;;;;;;;13.83;43.65;103175.88;4943351;29;20159;-36
2024/01/10 08:58:19;;;;;;;6.80;4.72;;;;;;;13.93;43.58;103180.78;4942753;29;20055;-37
2024/01/10 09:00:45;;;;;;;6.32;4.45;;;;;;;14.01;43.70;103182.16;4945760;29;20488;-39
2024/01/10 09:03:12;;;;;;;5.93;3.90;;;;;;;14.09;44.51;103179.16;4942873;28;20051;-36
2024/01/10 09:05:39;;;;;;;6.15;4.25;;;;;;;14.13;44.99;103185.22;4946487;28;20051;-36
2024/01/10 09:08:08;;;;;;;5.28;3.85;;;;;;;14.17;44.74;103181.47;4944486;28;20057;-35
2024/01/10 09:10:35;;;;;;;6.00;4.07;;;;;;;14.21;44.61;103183.91;4944024;28;20043;-35
2024/01/10 09:13:03;;;;;;;7.78;4.60;;;;;;;14.26;44.12;103186.38;4946003;29;20085;-35
2024/01/10 09:15:29;;;;;;;6.95;4.30;;;;;;;14.29;44.39;103187.09;4943164;28;20043;-34
2024/01/10 09:17:56;;;;;;;5.75;4.05;;;;;;;14.32;44.19;103186.09;4945351;29;20208;-34
2024/01/10 09:20:23;;;;;;;8.20;4.43;;;;;;;14.38;44.20;103166.25;4941548;28;20134;-35
2024/01/10 09:22:50;;;;;;;5.55;3.83;;;;;;;14.41;43.87;103168.78;4943430;29;20063;-35
2024/01/10 09:25:17;;;;;;;5.97;4.07;;;;;;;14.44;43.59;103169.50;4942698;29;20062;-36
2024/01/10 09:27:44;;;;;;;6.38;4.20;;;;;;;14.49;44.14;103169.31;4946219;28;20139;-38
2024/01/10 09:30:12;;;;;;;6.88;4.15;;;;;;;14.53;43.98;103168.22;4941820;29;20057;-35
2024/01/10 09:32:39;;;;;;;6.18;3.67;;;;;;;14.58;44.57;103163.53;4942480;28;20047;-36
2024/01/10 09:35:06;;;;;;;5.55;3.85;;;;;;;14.62;43.84;103162.44;4942219;29;20057;-35
2024/01/10 09:37:33;;;;;;;5.75;4.00;;;;;;;14.69;44.18;103157.66;4942210;29;20055;-35
2024/01/10 09:40:00;;;;;;;8.63;4.32;;;;;;;14.74;44.11;103167.16;4945443;28;20051;-36
2024/01/10 09:42:31;;;;;;;6.90;4.40;;;;;;;14.79;44.12;103172.28;4946464;28;20138;-37
2024/01/10 09:45:00;;;;;;;6.07;4.10;;;;;;;14.86;44.86;103164.84;4946419;29;20043;-36
2024/01/10 09:47:27;;;;;;;5.30;3.70;;;;;;;14.90;44.53;103175.28;4946081;28;20051;-36
2024/01/10 09:49:55;;;;;;;5.07;3.65;;;;;;;14.95;44.70;103180.41;4945742;29;20134;-36
2024/01/10 09:52:27;;;;;;;5.05;3.53;;;;;;;15.02;44.32;103187.16;4943354;29;20062;-35
2024/01/10 09:54:57;;;;;;;7.78;3.88;;;;;;;15.08;45.05;103173.53;4947744;29;20134;-35
2024/01/10 09:57:25;;;;;;;5.57;3.83;;;;;;;15.14;45.20;103175.00;4944518;29;20404;-35
2024/01/10 09:59:52;;;;;;;6.50;3.90;;;;;;;15.20;44.15;103182.72;4947961;29;20501;-35
2024/01/10 10:02:20;;;;;;;5.00;4.00;;;;;;;15.27;44.62;103176.09;4947167;28;20320;-34
2024/01/10 10:05:12;;;;;;;7.15;3.67;;;;;;;15.35;44.22;103178.38;4947040;29;20055;-33
2024/01/10 10:07:50;;;;;;;7.22;4.25;;;;;;;15.43;43.93;103177.03;4942079;29;20075;-35
2024/01/10 10:10:19;;;;;;;6.53;3.65;;;;;;;15.49;43.38;103165.19;4948048;29;20134;-35
2024/01/10 10:12:47;;;;;;;5.30;3.60;;;;;;;15.55;43.94;103164.84;4947022;29;20427;-36
2024/01/10 10:15:16;;;;;;;6.65;3.65;;;;;;;15.61;44.50;103169.88;4949267;29;20054;-35
2024/01/10 10:17:47;;;;;;;4.93;3.58;;;;;;;15.67;43.43;103174.94;4949141;29;20067;-34
2024/01/10 10:20:20;;;;;;;6.80;4.03;;;;;;;15.71;44.20;103168.47;4944632;28;20244;-36
2024/01/10 10:23:07;;;;;;;6.30;3.67;;;;;;;15.77;44.32;103172.66;4942130;29;20063;-35
2024/01/10 10:25:35;;;;;;;6.32;3.60;;;;;;;15.84;43.60;103165.13;4943233;29;20052;-35
2024/01/10 10:28:03;;;;;;;5.70;3.55;;;;;;;15.87;44.34;103163.16;4945667;28;20055;-35
2024/01/10 10:30:32;;;;;;;5.68;3.33;;;;;;;15.91;43.96;103162.06;4941399;28;20407;-35
2024/01/10 10:33:00;;;;;;;7.68;3.58;;;;;;;15.96;43.54;103164.47;4945519;28;20465;-35
2024/01/10 10:35:26;;;;;;;5.05;3.40;;;;;;;16.00;43.66;103161.56;4943810;28;20515;-35
2024/01/10 10:38:08;;;;;;;8.23;3.72;;;;;;;16.03;44.43;103152.50;4945946;28;20055;-35
2024/01/10 10:40:35;;;;;;;4.05;2.83;;;;;;;16.07;43.46;103140.69;4950849;29;20130;-36
2024/01/10 10:43:04;;;;;;;12.25;3.47;;;;;;;16.11;44.13;103147.59;4948403;29;20048;-37
2024/01/10 10:45:32;;;;;;;6.18;3.92;;;;;;;16.14;44.31;103151.91;4949085;29;20052;-35
2024/01/10 10:48:00;;;;;;;6.40;3.78;;;;;;;16.17;43.35;103146.41;4948615;28;20423;-35
2024/01/10 10:50:32;;;;;;;5.30;3.50;;;;;;;16.19;44.19;103147.16;4947128;29;20094;-35
2024/01/10 10:53:02;;;;;;;6.15;3.35;;;;;;;16.21;43.34;103151.50;4951183;29;20138;-35
2024/01/10 10:55:29;;;;;;;5.18;3.25;;;;;;;16.24;43.44;103150.44;4950891;29;20047;-35
2024/01/10 10:57:57;;;;;;;5.30;3.17;;;;;;;16.25;43.97;103145.03;4948954;29;20047;-38
2024/01/10 11:00:35;;;;;;;5.20;2.97;;;;;;;16.28;43.58;103142.19;4948172;28;20427;-35
2024/01/10 11:03:04;;;;;;;5.50;3.60;;;;;;;16.29;44.20;103141.22;4943499;29;20172;-36
2024/01/10 11:05:31;;;;;;;4.88;3.08;;;;;;;16.32;43.56;103142.84;4946807;29;20055;-36
2024/01/10 11:08:02;;;;;;;4.68;3.17;;;;;;;16.34;43.30;103145.47;4949333;29;20054;-35
2024/01/10 11:10:33;;;;;;;6.35;3.40;;;;;;;16.35;43.47;103156.06;4948356;29;20446;-35
2024/01/10 11:13:19;;;;;;;5.57;2.95;;;;;;;16.37;44.01;103151.50;4943929;29;20134;-36
2024/01/10 11:16:07;;;;;;;4.20;3.13;;;;;;;16.38;43.61;103152.38;4947979;29;20427;-36
2024/01/10 11:18:42;;;;;;;5.30;3.40;;;;;;;16.41;43.55;103144.16;4948298;29;20056;-38
2024/01/10 11:21:30;;;;;;;4.72;2.70;;;;;;;16.42;44.76;103152.09;4945063;29;20079;-36
2024/01/10 11:23:59;;;;;;;4.70;3.42;;;;;;;16.43;44.51;103142.25;4944219;28;20063;-36